28°C
Woerden, The Nederlands
Taal:  Nederlands
Updated23/07/2018 19:20 
 
Station Historical Data
 
Daily Summary for July 23, 2018 Units:  Metric    English   Both
Next Day »
Daily Weekly Monthly Yearly Custom
  Current: High: Low: Average:
Temperature: 27.9 °C 29.1 °C 16.0 °C 22.3 °C
Dew Point: 17.5 °C 18.0 °C 13.9 °C 15.9 °C
Humidity: 53% 89% 49% 69%
Wind Speed: 5.6km/h 16.7km/h 0.0km/h 5.5km/h
Wind Gust: 5.0km/h 12.9km/h - -
WindNW - - SW
Pressure: 1015.1 hPa 1016.5 hPa 1015.0 hPa -
Precipitation: 0.0 mm      
Historical Graphs
 
 
Tabular Data for July 23, 2018
Time Temperature Dew Point Pressure Wind Wind Speed Wind Gust Humidity Rainfall Rate (Hourly) solar Conditions
00:04 18.2 °C 14.4 °C 1015.8 hPa Calm     79% 0.0 mm 0.00 W/m2 BKN
00:09 18.2 °C 14.4 °C 1015.8 hPa Calm     79% 0.0 mm 0.00 W/m2 BKN
00:14 18.2 °C 14.4 °C 1015.8 hPa Calm     79% 0.0 mm 0.00 W/m2 BKN
00:19 18.1 °C 14.4 °C 1015.9 hPa Calm     79% 0.0 mm 0.00 W/m2 BKN
00:24 18.1 °C 14.6 °C 1015.8 hPa Calm     80% 0.0 mm 0.00 W/m2 BKN
00:29 18.0 °C 14.5 °C 1015.9 hPa Calm     80% 0.0 mm 0.00 W/m2 BKN
00:34 17.9 °C 14.4 °C 1015.8 hPa Calm     80% 0.0 mm 0.00 W/m2 BKN
00:39 17.9 °C 14.6 °C 1015.8 hPa Calm     81% 0.0 mm 0.00 W/m2 BKN
00:44 17.9 °C 14.6 °C 1015.8 hPa Calm     81% 0.0 mm 0.00 W/m2 BKN
00:49 17.9 °C 14.6 °C 1015.8 hPa Calm     81% 0.0 mm 0.00 W/m2 BKN
00:54 17.9 °C 14.6 °C 1015.9 hPa Calm     81% 0.0 mm 0.00 W/m2 BKN
00:59 17.8 °C 14.5 °C 1015.9 hPa Calm     81% 0.0 mm 0.00 W/m2 BKN
01:04 17.8 °C 14.5 °C 1015.8 hPa Calm     81% 0.0 mm 0.00 W/m2 BKN
01:09 17.8 °C 14.5 °C 1015.8 hPa Calm     81% 0.0 mm 0.00 W/m2 BKN
01:14 17.8 °C 14.7 °C 1015.8 hPa Calm     82% 0.0 mm 0.00 W/m2 BKN
01:19 17.9 °C 14.8 °C 1015.9 hPa Calm     82% 0.0 mm 0.00 W/m2 BKN
01:24 17.8 °C 14.7 °C 1015.8 hPa Calm     82% 0.0 mm 0.00 W/m2 BKN
01:29 17.8 °C 14.7 °C 1015.9 hPa Calm     82% 0.0 mm 0.00 W/m2 BKN
01:34 17.8 °C 14.8 °C 1016.0 hPa Calm     83% 0.0 mm 0.00 W/m2 BKN
01:39 17.6 °C 14.7 °C 1015.9 hPa Calm     83% 0.0 mm 0.00 W/m2 BKN
01:44 17.4 °C 14.5 °C 1015.9 hPa NW 1.9 km/h 0.5 km/h 83% 0.0 mm 0.00 W/m2 BKN
01:49 17.3 °C 14.4 °C 1015.9 hPa NW 3.7 km/h 1.0 km/h 83% 0.0 mm 0.00 W/m2 BKN
01:54 17.2 °C 14.3 °C 1015.9 hPa Calm     83% 0.0 mm 0.00 W/m2 BKN
01:59 17.2 °C 14.4 °C 1015.8 hPa NW 1.9 km/h 0.3 km/h 84% 0.0 mm 0.00 W/m2 BKN
02:04 17.1 °C 14.4 °C 1015.9 hPa Calm     84% 0.0 mm 0.00 W/m2 BKN
02:09 17.1 °C 14.3 °C 1015.8 hPa Calm     84% 0.0 mm 0.00 W/m2 BKN
02:14 17.1 °C 14.3 °C 1016.0 hPa Calm     84% 0.0 mm 0.00 W/m2 BKN
02:19 17.1 °C 14.3 °C 1016.0 hPa Calm     84% 0.0 mm 0.00 W/m2 BKN
02:24 17.1 °C 14.3 °C 1016.0 hPa Calm     84% 0.0 mm 0.00 W/m2 BKN
02:29 17.1 °C 14.3 °C 1015.9 hPa Calm     84% 0.0 mm 0.00 W/m2 BKN
02:34 17.1 °C 14.5 °C 1015.9 hPa Calm     85% 0.0 mm 0.00 W/m2 BKN
02:39 17.1 °C 14.6 °C 1015.9 hPa Calm     85% 0.0 mm 0.00 W/m2 BKN
02:44 17.2 °C 14.6 °C 1015.8 hPa Calm     85% 0.0 mm 0.00 W/m2 BKN
02:49 17.2 °C 14.7 °C 1015.8 hPa Calm     85% 0.0 mm 0.00 W/m2 BKN
02:54 17.3 °C 14.7 °C 1015.8 hPa Calm     85% 0.0 mm 0.00 W/m2 BKN
02:59 17.3 °C 14.6 °C 1015.8 hPa Calm     84% 0.0 mm 0.00 W/m2 BKN
03:04 17.3 °C 14.6 °C 1015.8 hPa Calm     84% 0.0 mm 0.00 W/m2 BKN
03:09 17.3 °C 14.7 °C 1015.8 hPa Calm     85% 0.0 mm 0.00 W/m2 BKN
03:14 17.3 °C 14.7 °C 1015.8 hPa Calm     85% 0.0 mm 0.00 W/m2 BKN
03:19 17.3 °C 14.7 °C 1015.8 hPa Calm     85% 0.0 mm 0.00 W/m2 BKN
03:24 17.3 °C 14.8 °C 1015.8 hPa Calm     85% 0.0 mm 0.00 W/m2 BKN
03:29 17.3 °C 14.7 °C 1015.8 hPa Calm     85% 0.0 mm 0.00 W/m2 BKN
03:34 17.2 °C 14.6 °C 1015.8 hPa Calm     85% 0.0 mm 0.00 W/m2 BKN
03:39 17.1 °C 14.6 °C 1015.9 hPa Calm     85% 0.0 mm 0.00 W/m2 BKN
03:44 17.1 °C 14.7 °C 1015.8 hPa Calm     86% 0.0 mm 0.00 W/m2 BKN
03:49 16.9 °C 14.6 °C 1015.8 hPa Calm     86% 0.0 mm 0.00 W/m2 BKN
03:54 16.8 °C 14.5 °C 1015.8 hPa Calm     86% 0.0 mm 0.00 W/m2 BKN
03:59 16.7 °C 14.4 °C 1015.8 hPa Calm     86% 0.0 mm 0.00 W/m2 BKN
04:04 16.6 °C 14.4 °C 1015.8 hPa Calm     87% 0.0 mm 0.00 W/m2 BKN
04:08 16.5 °C 14.2 °C 1015.8 hPa Calm     86% 0.0 mm 0.00 W/m2 BKN
04:14 16.3 °C 14.1 °C 1015.8 hPa Calm     87% 0.0 mm 0.00 W/m2 BKN
04:19 16.2 °C 14.1 °C 1015.7 hPa Calm     87% 0.0 mm 0.00 W/m2 BKN
04:24 16.2 °C 14.0 °C 1015.7 hPa Calm     87% 0.0 mm 0.00 W/m2 BKN
04:29 16.1 °C 13.9 °C 1015.7 hPa Calm     87% 0.0 mm 0.00 W/m2 BKN
04:34 16.0 °C 14.0 °C 1015.7 hPa Calm     88% 0.0 mm 0.00 W/m2 BKN
04:39 16.0 °C 14.0 °C 1015.7 hPa Calm     88% 0.0 mm 0.00 W/m2 BKN
04:44 16.1 °C 14.1 °C 1015.7 hPa Calm     88% 0.0 mm 0.00 W/m2 BKN
04:49 16.1 °C 14.1 °C 1015.8 hPa Calm     88% 0.0 mm 0.00 W/m2 BKN
04:54 16.2 °C 14.2 °C 1015.8 hPa Calm     88% 0.0 mm 0.00 W/m2 BKN
04:59 16.2 °C 14.2 °C 1015.7 hPa Calm     88% 0.0 mm 0.00 W/m2 BKN
05:04 16.2 °C 14.2 °C 1015.7 hPa Calm     88% 0.0 mm 0.00 W/m2 BKN
05:09 16.2 °C 14.2 °C 1015.7 hPa Calm     88% 0.0 mm 0.00 W/m2 BKN
05:14 16.2 °C 14.2 °C 1015.8 hPa Calm     88% 0.0 mm 0.00 W/m2 BKN
05:19 16.2 °C 14.2 °C 1015.8 hPa Calm     88% 0.0 mm 0.00 W/m2 BKN
05:24 16.2 °C 14.2 °C 1015.7 hPa Calm     88% 0.0 mm 0.00 W/m2 BKN
05:29 16.2 °C 14.1 °C 1015.7 hPa Calm     87% 0.0 mm 0.00 W/m2 BKN
05:34 16.3 °C 14.1 °C 1015.7 hPa Calm     87% 0.0 mm 0.00 W/m2 BKN
05:39 16.3 °C 14.1 °C 1015.7 hPa Calm     87% 0.0 mm 0.00 W/m2 BKN
05:44 16.3 °C 14.1 °C 1015.7 hPa Calm     87% 0.0 mm 0.00 W/m2 BKN
05:49 16.2 °C 14.1 °C 1015.8 hPa Calm     87% 0.0 mm 0.00 W/m2 OVC
05:54 16.2 °C 14.0 °C 1015.9 hPa Calm     87% 0.0 mm 5.00 W/m2 OVC
05:59 16.2 °C 14.2 °C 1015.9 hPa Calm     88% 0.0 mm 7.00 W/m2 OVC
06:04 16.3 °C 14.3 °C 1015.9 hPa Calm     88% 0.0 mm 9.00 W/m2 OVC
06:09 16.4 °C 14.4 °C 1015.9 hPa Calm     88% 0.0 mm 11.00 W/m2 OVC
06:14 16.5 °C 14.5 °C 1016.0 hPa Calm     88% 0.0 mm 12.00 W/m2 OVC
06:19 16.5 °C 14.5 °C 1016.0 hPa Calm     88% 0.0 mm 14.00 W/m2 OVC
06:24 16.6 °C 14.6 °C 1016.0 hPa Calm     88% 0.0 mm 18.00 W/m2 OVC
06:29 16.8 °C 14.8 °C 1016.0 hPa Calm     88% 0.0 mm 23.00 W/m2 OVC
06:34 16.8 °C 14.8 °C 1016.0 hPa Calm     88% 0.0 mm 32.00 W/m2 OVC
06:39 16.9 °C 14.7 °C 1015.9 hPa Calm     87% 0.0 mm 40.00 W/m2 OVC
06:44 17.0 °C 15.2 °C 1016.0 hPa Calm     89% 0.0 mm 49.00 W/m2 OVC
06:49 17.2 °C 15.1 °C 1016.1 hPa Calm     87% 0.0 mm 56.00 W/m2 OVC
06:54 17.4 °C 15.2 °C 1016.1 hPa Calm     87% 0.0 mm 63.00 W/m2 OVC
06:59 17.6 °C 15.2 °C 1016.2 hPa Calm     86% 0.0 mm 74.00 W/m2 BKN
07:04 17.8 °C 15.4 °C 1016.3 hPa Calm     86% 0.0 mm 83.00 W/m2 SCT
07:07 17.9 °C 15.3 °C 1016.3 hPa Calm     85% 0.0 mm 90.00 W/m2 CLR
07:14 18.2 °C 15.5 °C 1016.3 hPa Calm     84% 0.0 mm 105.00 W/m2 CLR
07:19 18.3 °C 15.4 °C 1016.3 hPa NE 1.9 km/h 0.2 km/h 83% 0.0 mm 118.00 W/m2 CLR
07:24 18.5 °C 15.6 °C 1016.3 hPa NE 1.9 km/h 0.2 km/h 83% 0.0 mm 128.00 W/m2 CLR
07:29 18.7 °C 15.6 °C 1016.3 hPa Calm     82% 0.0 mm 139.00 W/m2 CLR
07:34 18.9 °C 15.6 °C 1016.3 hPa Calm     81% 0.0 mm 151.00 W/m2 CLR
07:39 19.0 °C 15.7 °C 1016.3 hPa Calm     81% 0.0 mm 163.00 W/m2 CLR
07:44 19.1 °C 15.5 °C 1016.4 hPa Calm     80% 0.0 mm 174.00 W/m2 CLR
07:49 19.3 °C 15.7 °C 1016.4 hPa Calm     80% 0.0 mm 185.00 W/m2 CLR
07:54 19.4 °C 15.7 °C 1016.4 hPa Calm     79% 0.0 mm 197.00 W/m2 CLR
07:59 19.3 °C 15.6 °C 1016.3 hPa Calm     79% 0.0 mm 207.00 W/m2 CLR
08:04 19.6 °C 15.4 °C 1016.4 hPa NE 1.9 km/h 0.2 km/h 77% 0.0 mm 218.00 W/m2 CLR
08:09 19.7 °C 15.4 °C 1016.4 hPa Calm     76% 0.0 mm 229.00 W/m2 CLR
08:14 19.9 °C 15.8 °C 1016.4 hPa Calm     77% 0.0 mm 241.00 W/m2 CLR
08:19 19.9 °C 15.8 °C 1016.4 hPa ENE 3.7 km/h 1.1 km/h 77% 0.0 mm 253.00 W/m2 CLR
08:24 20.0 °C 15.7 °C 1016.3 hPa ENE 3.7 km/h 1.0 km/h 76% 0.0 mm 258.00 W/m2 CLR
08:29 20.2 °C 15.2 °C 1016.3 hPa ENE 5.6 km/h 1.8 km/h 73% 0.0 mm 257.00 W/m2 CLR
08:34 20.4 °C 15.6 °C 1016.3 hPa ENE 5.6 km/h 1.9 km/h 74% 0.0 mm 253.00 W/m2 CLR
08:39 20.7 °C 15.3 °C 1016.4 hPa ENE 1.9 km/h 0.8 km/h 71% 0.0 mm 250.00 W/m2 CLR
08:44 20.9 °C 15.3 °C 1016.3 hPa ENE 5.6 km/h 1.8 km/h 70% 0.0 mm 257.00 W/m2 CLR
08:49 21.1 °C 14.9 °C 1016.4 hPa ENE 4.8 km/h 2.4 km/h 68% 0.0 mm 278.00 W/m2 CLR
08:54 21.1 °C 14.7 °C 1016.4 hPa East 5.6 km/h 3.4 km/h 67% 0.0 mm 299.00 W/m2 CLR
08:59 21.0 °C 14.9 °C 1016.5 hPa East 5.6 km/h 2.9 km/h 68% 0.0 mm 315.00 W/m2 CLR
09:04 21.1 °C 14.9 °C 1016.3 hPa ESE 5.6 km/h 2.3 km/h 68% 0.0 mm 292.00 W/m2 CLR
09:09 21.2 °C 15.1 °C 1016.4 hPa ESE 3.7 km/h 1.1 km/h 68% 0.0 mm 271.00 W/m2 CLR
09:14 21.5 °C 15.1 °C 1016.4 hPa ESE 9.7 km/h 2.6 km/h 67% 0.0 mm 288.00 W/m2 CLR
09:19 21.4 °C 14.8 °C 1016.4 hPa ESE 9.3 km/h 1.3 km/h 66% 0.0 mm 329.00 W/m2 CLR
09:24 21.7 °C 15.1 °C 1016.4 hPa ESE 3.7 km/h 0.3 km/h 66% 0.0 mm 339.00 W/m2 CLR
09:29 21.8 °C 14.9 °C 1016.4 hPa ESE 5.6 km/h 1.8 km/h 65% 0.0 mm 346.00 W/m2 CLR
09:34 21.9 °C 15.3 °C 1016.3 hPa SE 5.6 km/h 1.4 km/h 66% 0.0 mm 350.00 W/m2 CLR
09:39 22.1 °C 15.4 °C 1016.3 hPa SE 5.6 km/h 2.7 km/h 66% 0.0 mm 362.00 W/m2 CLR
09:44 22.2 °C 15.3 °C 1016.4 hPa SE 3.7 km/h 1.1 km/h 65% 0.0 mm 385.00 W/m2 CLR
09:49 22.7 °C 15.7 °C 1016.4 hPa SE 1.9 km/h 0.5 km/h 65% 0.0 mm 406.00 W/m2 CLR
09:54 22.8 °C 15.8 °C 1016.3 hPa SE 5.6 km/h 1.8 km/h 65% 0.0 mm 427.00 W/m2 CLR
09:59 22.9 °C 15.8 °C 1016.3 hPa ESE 5.6 km/h 3.2 km/h 64% 0.0 mm 457.00 W/m2 CLR
10:04 22.9 °C 15.7 °C 1016.3 hPa SE 5.6 km/h 3.1 km/h 64% 0.0 mm 478.00 W/m2 CLR
10:08 22.8 °C 15.7 °C 1016.3 hPa SE 5.6 km/h 2.6 km/h 64% 0.0 mm 499.00 W/m2 CLR
10:14 22.9 °C 16.0 °C 1016.4 hPa SE 4.8 km/h 1.1 km/h 65% 0.0 mm 541.00 W/m2 CLR
10:19 23.1 °C 15.9 °C 1016.5 hPa South 5.6 km/h 2.1 km/h 64% 0.0 mm 545.00 W/m2 CLR
10:24 23.0 °C 15.8 °C 1016.4 hPa South 7.4 km/h 4.5 km/h 64% 0.0 mm 548.00 W/m2 CLR
10:29 22.9 °C 15.8 °C 1016.4 hPa SSW 5.6 km/h 3.2 km/h 64% 0.0 mm 564.00 W/m2 CLR
10:34 23.1 °C 16.1 °C 1016.4 hPa SSW 3.7 km/h 0.6 km/h 65% 0.0 mm 566.00 W/m2 CLR
10:39 23.2 °C 16.1 °C 1016.5 hPa SW 7.4 km/h 5.0 km/h 64% 0.0 mm 580.00 W/m2 CLR
10:44 23.4 °C 16.2 °C 1016.5 hPa SW 5.6 km/h 1.1 km/h 64% 0.0 mm 591.00 W/m2 CLR
10:49 23.8 °C 16.3 °C 1016.4 hPa WSW 6.4 km/h 3.4 km/h 63% 0.0 mm 589.00 W/m2 CLR
10:54 23.6 °C 16.1 °C 1016.4 hPa WSW 7.4 km/h 4.8 km/h 63% 0.0 mm 624.00 W/m2 CLR
10:59 23.6 °C 16.4 °C 1016.4 hPa WSW 5.6 km/h 1.3 km/h 64% 0.0 mm 633.00 W/m2 CLR
11:04 24.2 °C 16.7 °C 1016.5 hPa SW 6.4 km/h 1.0 km/h 63% 0.0 mm 624.00 W/m2 CLR
11:09 24.2 °C 16.4 °C 1016.4 hPa SW 9.3 km/h 5.0 km/h 62% 0.0 mm 645.00 W/m2 CLR
11:14 24.2 °C 16.4 °C 1016.4 hPa West 5.6 km/h 2.4 km/h 62% 0.0 mm 661.00 W/m2 CLR
11:19 24.1 °C 16.3 °C 1016.4 hPa NW 7.4 km/h 5.5 km/h 62% 0.0 mm 657.00 W/m2 CLR
11:24 24.0 °C 16.3 °C 1016.3 hPa NW 5.6 km/h 2.3 km/h 62% 0.0 mm 666.00 W/m2 CLR
11:29 24.3 °C 16.3 °C 1016.4 hPa SW 7.4 km/h 3.5 km/h 61% 0.0 mm 679.00 W/m2 CLR
11:34 24.5 °C 16.5 °C 1016.4 hPa SW 8.0 km/h 4.2 km/h 61% 0.0 mm 698.00 W/m2 CLR
11:39 24.4 °C 16.7 °C 1016.5 hPa WSW 7.4 km/h 3.9 km/h 62% 0.0 mm 689.00 W/m2 CLR
11:44 24.7 °C 16.7 °C 1016.3 hPa SW 6.4 km/h 1.8 km/h 61% 0.0 mm 700.00 W/m2 CLR
11:49 24.7 °C 16.7 °C 1016.3 hPa WSW 9.7 km/h 5.3 km/h 61% 0.0 mm 712.00 W/m2 CLR
11:54 24.7 °C 16.7 °C 1016.3 hPa WSW 9.3 km/h 6.0 km/h 61% 0.0 mm 712.00 W/m2 CLR
11:59 25.2 °C 17.1 °C 1016.3 hPa West 5.6 km/h 3.4 km/h 61% 0.0 mm 717.00 W/m2 CLR
12:04 25.4 °C 16.8 °C 1016.3 hPa West 5.6 km/h 2.4 km/h 59% 0.0 mm 726.00 W/m2 CLR
12:09 25.4 °C 16.8 °C 1016.2 hPa West 6.4 km/h 3.7 km/h 59% 0.0 mm 729.00 W/m2 CLR
12:14 25.2 °C 16.8 °C 1016.1 hPa West 5.6 km/h 3.9 km/h 60% 0.0 mm 724.00 W/m2 CLR
12:19 25.3 °C 16.9 °C 1016.3 hPa NW 13.0 km/h 4.5 km/h 60% 0.0 mm 742.00 W/m2 CLR
12:24 25.5 °C 16.9 °C 1016.1 hPa West 13.0 km/h 3.2 km/h 59% 0.0 mm 745.00 W/m2 CLR
12:29 25.7 °C 17.1 °C 1016.1 hPa WNW 13.0 km/h 6.4 km/h 59% 0.0 mm 761.00 W/m2 CLR
12:34 25.8 °C 16.9 °C 1016.1 hPa WNW 9.3 km/h 4.8 km/h 58% 0.0 mm 752.00 W/m2 CLR
12:39 25.8 °C 17.2 °C 1016.0 hPa West 9.3 km/h 5.1 km/h 59% 0.0 mm 768.00 W/m2 CLR
12:44 26.2 °C 17.3 °C 1016.0 hPa West 9.3 km/h 4.2 km/h 58% 0.0 mm 745.00 W/m2 CLR
12:49 26.2 °C 17.3 °C 1016.0 hPa NNW 13.0 km/h 4.2 km/h 58% 0.0 mm 708.00 W/m2 CLR
12:54 26.1 °C 17.4 °C 1015.9 hPa NNW 13.0 km/h 5.1 km/h 59% 0.0 mm 666.00 W/m2 CLR
12:59 26.1 °C 17.2 °C 1016.0 hPa West 11.3 km/h 4.5 km/h 58% 0.0 mm 613.00 W/m2 CLR
13:04 26.2 °C 17.3 °C 1016.0 hPa NNW 7.4 km/h 4.5 km/h 58% 0.0 mm 592.00 W/m2 CLR
13:08 26.4 °C 17.4 °C 1015.9 hPa North 7.4 km/h 4.2 km/h 58% 0.0 mm 613.00 W/m2 CLR
13:14 26.3 °C 17.1 °C 1015.9 hPa NW 9.7 km/h 6.0 km/h 57% 0.0 mm 631.00 W/m2 CLR
13:19 26.1 °C 17.2 °C 1016.0 hPa North 9.3 km/h 6.6 km/h 58% 0.0 mm 679.00 W/m2 CLR
13:24 26.2 °C 17.3 °C 1016.1 hPa NNW 9.3 km/h 5.5 km/h 58% 0.0 mm 703.00 W/m2 CLR
13:29 26.4 °C 17.5 °C 1016.0 hPa NW 14.8 km/h 6.3 km/h 58% 0.0 mm 747.00 W/m2 CLR
13:33 26.6 °C 17.3 °C 1016.1 hPa WNW 14.8 km/h 6.4 km/h 57% 0.0 mm 784.00 W/m2 CLR
13:39 26.8 °C 17.6 °C 1016.0 hPa NW 16.1 km/h 7.6 km/h 57% 0.0 mm 784.00 W/m2 CLR
13:44 26.9 °C 17.7 °C 1015.9 hPa NW 16.7 km/h 7.1 km/h 57% 0.0 mm 777.00 W/m2 CLR
13:49 27.1 °C 17.6 °C 1016.0 hPa North 16.7 km/h 7.4 km/h 56% 0.0 mm 773.00 W/m2 CLR
13:54 26.9 °C 17.4 °C 1016.0 hPa North 13.0 km/h 6.3 km/h 56% 0.0 mm 780.00 W/m2 CLR
13:58 26.9 °C 17.4 °C 1016.2 hPa NW 13.0 km/h 6.0 km/h 56% 0.0 mm 779.00 W/m2 CLR
14:03 27.1 °C 17.2 °C 1016.1 hPa NE 13.0 km/h 5.8 km/h 55% 0.0 mm 788.00 W/m2 CLR
14:08 27.1 °C 17.5 °C 1016.0 hPa NNW 14.5 km/h 6.0 km/h 56% 0.0 mm 789.00 W/m2 CLR
14:13 27.2 °C 17.6 °C 1016.1 hPa NW 7.4 km/h 5.1 km/h 56% 0.0 mm 788.00 W/m2 CLR
14:18 27.4 °C 17.6 °C 1016.0 hPa NE 7.4 km/h 5.1 km/h 55% 0.0 mm 786.00 W/m2 CLR
14:23 27.3 °C 17.2 °C 1016.0 hPa NNW 9.7 km/h 5.8 km/h 54% 0.0 mm 784.00 W/m2 CLR
14:27 27.1 °C 17.3 °C 1015.9 hPa NNE 11.3 km/h 6.4 km/h 55% 0.0 mm 788.00 W/m2 CLR
14:33 27.3 °C 17.2 °C 1015.9 hPa WNW 9.3 km/h 6.8 km/h 54% 0.0 mm 766.00 W/m2 CLR
14:39 27.4 °C 17.3 °C 1015.9 hPa NW 11.3 km/h 6.8 km/h 54% 0.0 mm 780.00 W/m2 CLR
14:42 27.5 °C 17.1 °C 1015.9 hPa NW 9.3 km/h 6.4 km/h 53% 0.0 mm 777.00 W/m2 CLR
14:48 28.0 °C 17.8 °C 1015.8 hPa NNW 9.7 km/h 5.0 km/h 54% 0.0 mm 773.00 W/m2 CLR
14:53 28.0 °C 17.5 °C 1015.8 hPa NNW 9.3 km/h 5.0 km/h 53% 0.0 mm 773.00 W/m2 CLR
14:59 28.0 °C 17.5 °C 1016.0 hPa NW 16.1 km/h 5.0 km/h 53% 0.0 mm 694.00 W/m2 CLR
15:04 27.8 °C 17.0 °C 1015.9 hPa NW 14.8 km/h 6.1 km/h 52% 0.0 mm 146.00 W/m2 CLR
15:07 27.8 °C 17.0 °C 1015.9 hPa NW 14.8 km/h 6.1 km/h 52% 0.0 mm 146.00 W/m2 SCT
15:13 27.8 °C 17.0 °C 1015.9 hPa NW 14.8 km/h 5.8 km/h 52% 0.0 mm 763.00 W/m2 BKN
15:15 27.8 °C 17.0 °C 1015.9 hPa NW 14.8 km/h 5.8 km/h 52% 0.0 mm 763.00 W/m2 BKN
15:23 27.6 °C 17.4 °C 1016.0 hPa NW 9.3 km/h 6.9 km/h 54% 0.0 mm 745.00 W/m2 FEW
15:28 27.9 °C 17.5 °C 1015.9 hPa West 11.3 km/h 4.3 km/h 53% 0.0 mm 745.00 W/m2 CLR
15:33 28.2 °C 17.1 °C 1015.9 hPa NW 11.3 km/h 4.5 km/h 51% 0.0 mm 733.00 W/m2 CLR
15:35 28.2 °C 17.1 °C 1015.9 hPa NW 9.7 km/h 4.5 km/h 51% 0.0 mm 733.00 W/m2 CLR
15:43 28.2 °C 17.4 °C 1015.8 hPa NNW 9.7 km/h 4.5 km/h 52% 0.0 mm 715.00 W/m2 CLR
15:47 28.4 °C 17.3 °C 1015.8 hPa East 9.3 km/h 4.2 km/h 51% 0.0 mm 705.00 W/m2 CLR
15:53 28.7 °C 17.3 °C 1015.8 hPa WNW 11.3 km/h 4.0 km/h 50% 0.0 mm 712.00 W/m2 CLR
15:58 28.7 °C 17.6 °C 1015.8 hPa NNW 6.4 km/h 2.9 km/h 51% 0.0 mm 705.00 W/m2 CLR
16:00 28.7 °C 17.6 °C 1015.8 hPa WNW 3.2 km/h 11.3 km/h 51% 0.0 mm 703.00 W/m2 FEW
16:09 28.4 °C 17.0 °C 1015.7 hPa NE 5.6 km/h 3.5 km/h 50% 0.0 mm 687.00 W/m2 CLR
16:13 28.6 °C 17.5 °C 1015.7 hPa North 13.0 km/h 7.4 km/h 51% 0.0 mm 684.00 W/m2 CLR
16:15 28.6 °C 17.4 °C 1015.7 hPa NW 14.5 km/h 7.6 km/h 51% 0.0 mm 677.00 W/m2 CLR
16:23 28.1 °C 16.9 °C 1015.6 hPa NW 13.0 km/h 8.2 km/h 51% 0.0 mm 664.00 W/m2 CLR
16:25 28.1 °C 16.9 °C 1015.6 hPa NW 13.0 km/h 8.2 km/h 51% 0.0 mm 664.00 W/m2 CLR
16:30 28.1 °C 16.9 °C 1015.6 hPa NW 13.0 km/h 8.2 km/h 51% 0.0 mm 664.00 W/m2 CLR
16:38 28.3 °C 17.2 °C 1015.6 hPa NNE 14.8 km/h 6.3 km/h 51% 0.0 mm 633.00 W/m2 CLR
16:43 28.3 °C 17.2 °C 1015.6 hPa East 14.8 km/h 6.0 km/h 51% 0.0 mm 622.00 W/m2 CLR
16:45 28.3 °C 17.2 °C 1015.6 hPa East 14.8 km/h 6.0 km/h 51% 0.0 mm 622.00 W/m2 CLR
16:52 28.6 °C 17.7 °C 1015.6 hPa NE 9.3 km/h 3.7 km/h 52% 0.0 mm 608.00 W/m2 CLR
16:58 28.5 °C 17.7 °C 1015.5 hPa NNW 13.0 km/h 7.2 km/h 52% 0.0 mm 596.00 W/m2 CLR
17:03 28.4 °C 17.6 °C 1015.5 hPa NNE 13.0 km/h 7.6 km/h 52% 0.0 mm 550.00 W/m2 CLR
17:08 28.6 °C 17.5 °C 1015.4 hPa SW 13.0 km/h 4.0 km/h 51% 0.0 mm 580.00 W/m2 CLR
17:10 28.8 °C 18.0 °C 1015.4 hPa West 16.1 km/h 3.7 km/h 52% 0.0 mm 578.00 W/m2 CLR
17:18 29.1 °C 17.3 °C 1015.4 hPa NW 14.8 km/h 6.6 km/h 49% 0.0 mm 563.00 W/m2 CLR
17:24 29.1 °C 17.3 °C 1015.4 hPa West 9.7 km/h 5.5 km/h 49% 0.0 mm 554.00 W/m2 CLR
17:27 29.1 °C 17.3 °C 1015.4 hPa West 9.3 km/h 5.5 km/h 49% 0.0 mm 554.00 W/m2 CLR
17:33 29.0 °C 17.2 °C 1015.4 hPa NNW 13.0 km/h 8.0 km/h 49% 0.0 mm 454.00 W/m2 CLR
17:39 28.8 °C 17.4 °C 1015.4 hPa North 13.0 km/h 8.4 km/h 50% 0.0 mm 515.00 W/m2 FEW
17:42 28.8 °C 17.7 °C 1015.4 hPa NNW 13.0 km/h 5.1 km/h 51% 0.0 mm 512.00 W/m2 FEW
17:45 28.8 °C 17.7 °C 1015.4 hPa NNW 13.0 km/h 5.1 km/h 51% 0.0 mm 512.00 W/m2 FEW
17:52 29.1 °C 17.9 °C 1015.2 hPa NNW 6.4 km/h 5.6 km/h 51% 0.0 mm 485.00 W/m2 CLR
17:57 29.0 °C 17.5 °C 1015.1 hPa NNE 13.0 km/h 4.8 km/h 50% 0.0 mm 475.00 W/m2 CLR
18:00 29.0 °C 17.6 °C 1015.1 hPa NNW 4.8 km/h 12.9 km/h 50% 0.0 mm 475.00 W/m2 FEW
18:07 28.8 °C 17.6 °C 1015.2 hPa NW 6.4 km/h 8.0 km/h 51% 0.0 mm 450.00 W/m2 FEW
18:13 28.7 °C 17.8 °C 1015.2 hPa NNW 14.8 km/h 8.2 km/h 52% 0.0 mm 431.00 W/m2 FEW
18:19 28.3 °C 17.8 °C 1015.2 hPa NW 14.8 km/h 7.2 km/h 53% 0.0 mm 418.00 W/m2 FEW
18:21 28.3 °C 17.8 °C 1015.1 hPa NW 9.7 km/h 7.1 km/h 53% 0.0 mm 418.00 W/m2 FEW
18:28 28.2 °C 17.4 °C 1015.1 hPa NW 9.7 km/h 7.2 km/h 52% 0.0 mm 413.00 W/m2 FEW
18:33 28.1 °C 17.6 °C 1015.0 hPa NNW 9.3 km/h 6.8 km/h 53% 0.0 mm 383.00 W/m2 FEW
18:37 28.2 °C 18.0 °C 1015.2 hPa NNW 9.7 km/h 6.6 km/h 54% 0.0 mm 380.00 W/m2 FEW
18:42 28.2 °C 17.4 °C 1015.0 hPa NW 9.3 km/h 5.3 km/h 52% 0.0 mm 359.00 W/m2 FEW
18:48 28.2 °C 17.4 °C 1015.0 hPa NNW 9.3 km/h 5.5 km/h 52% 0.0 mm 357.00 W/m2 FEW
18:53 28.2 °C 17.7 °C 1015.0 hPa NNW 9.7 km/h 9.3 km/h 53% 0.0 mm 334.00 W/m2 FEW
18:58 28.0 °C 17.8 °C 1015.1 hPa NW 13.0 km/h 6.3 km/h 54% 0.0 mm 318.00 W/m2 FEW
19:04 28.0 °C 17.2 °C 1015.1 hPa NW 14.5 km/h 6.0 km/h 52% 0.0 mm 311.00 W/m2 FEW
19:09 27.8 °C 17.7 °C 1015.0 hPa NNW 13.0 km/h 8.7 km/h 54% 0.0 mm 292.00 W/m2 SCT
19:13 27.8 °C 17.7 °C 1015.0 hPa NNW 13.0 km/h 8.2 km/h 54% 0.0 mm 283.00 W/m2 SCT
19:19 27.9 °C 17.5 °C 1015.1 hPa NW 9.3 km/h 5.0 km/h 53% 0.0 mm 269.00 W/m2 SCT
19:20 27.9 °C 17.5 °C 1015.1 hPa NW 5.6 km/h 5.0 km/h 53% 0.0 mm 267.00 W/m2 SCT
Juneau County Weather